sensor_id;sensor_type;location;lat;lon;timestamp;P1;durP1;ratioP1;P2;durP2;ratioP2
990;SDS011;484;48.128;11.602;2022-11-15T00:01:23;2.70;;;2.20;;
990;SDS011;484;48.128;11.602;2022-11-15T00:04:08;2.10;;;1.90;;
990;SDS011;484;48.128;11.602;2022-11-15T00:06:56;1.90;;;1.80;;
990;SDS011;484;48.128;11.602;2022-11-15T00:09:41;2.00;;;1.80;;
990;SDS011;484;48.128;11.602;2022-11-15T00:12:26;5.37;;;2.40;;
990;SDS011;484;48.128;11.602;2022-11-15T00:15:12;2.87;;;1.93;;
990;SDS011;484;48.128;11.602;2022-11-15T00:17:58;2.47;;;2.27;;
990;SDS011;484;48.128;11.602;2022-11-15T00:20:43;2.57;;;1.90;;
990;SDS011;484;48.128;11.602;2022-11-15T00:23:30;3.60;;;2.53;;
990;SDS011;484;48.128;11.602;2022-11-15T00:26:16;1.93;;;1.77;;
990;SDS011;484;48.128;11.602;2022-11-15T00:29:02;1.70;;;1.50;;
990;SDS011;484;48.128;11.602;2022-11-15T00:31:47;2.07;;;1.87;;
990;SDS011;484;48.128;11.602;2022-11-15T00:34:32;1.43;;;1.33;;
990;SDS011;484;48.128;11.602;2022-11-15T00:37:18;1.67;;;1.50;;
990;SDS011;484;48.128;11.602;2022-11-15T00:40:05;1.67;;;1.40;;
990;SDS011;484;48.128;11.602;2022-11-15T00:42:51;1.70;;;1.60;;
990;SDS011;484;48.128;11.602;2022-11-15T00:45:36;1.97;;;1.77;;
990;SDS011;484;48.128;11.602;2022-11-15T00:48:21;1.93;;;1.83;;
990;SDS011;484;48.128;11.602;2022-11-15T00:51:07;2.60;;;2.40;;
990;SDS011;484;48.128;11.602;2022-11-15T00:53:52;2.97;;;2.77;;
990;SDS011;484;48.128;11.602;2022-11-15T00:56:40;2.23;;;2.10;;
990;SDS011;484;48.128;11.602;2022-11-15T00:59:25;2.40;;;2.23;;
990;SDS011;484;48.128;11.602;2022-11-15T01:02:11;3.00;;;1.80;;
990;SDS011;484;48.128;11.602;2022-11-15T01:04:56;2.77;;;1.60;;
990;SDS011;484;48.128;11.602;2022-11-15T01:07:42;5.93;;;2.40;;
990;SDS011;484;48.128;11.602;2022-11-15T01:10:27;1.40;;;1.40;;
990;SDS011;484;48.128;11.602;2022-11-15T01:13:14;7.10;;;1.80;;
990;SDS011;484;48.128;11.602;2022-11-15T01:15:59;5.00;;;2.07;;
990;SDS011;484;48.128;11.602;2022-11-15T01:18:51;2.10;;;2.00;;
990;SDS011;484;48.128;11.602;2022-11-15T01:21:36;2.53;;;2.33;;
990;SDS011;484;48.128;11.602;2022-11-15T01:24:21;3.13;;;1.60;;
990;SDS011;484;48.128;11.602;2022-11-15T01:27:07;2.37;;;2.17;;
990;SDS011;484;48.128;11.602;2022-11-15T01:29:53;2.00;;;1.90;;
990;SDS011;484;48.128;11.602;2022-11-15T01:32:39;2.00;;;1.90;;
990;SDS011;484;48.128;11.602;2022-11-15T01:35:24;1.37;;;1.27;;
990;SDS011;484;48.128;11.602;2022-11-15T01:38:10;2.40;;;2.20;;
990;SDS011;484;48.128;11.602;2022-11-15T01:40:55;1.90;;;1.80;;
990;SDS011;484;48.128;11.602;2022-11-15T01:43:40;2.70;;;2.37;;
990;SDS011;484;48.128;11.602;2022-11-15T01:46:29;2.40;;;1.23;;
990;SDS011;484;48.128;11.602;2022-11-15T01:49:17;1.77;;;1.17;;
990;SDS011;484;48.128;11.602;2022-11-15T01:52:04;3.27;;;1.77;;
990;SDS011;484;48.128;11.602;2022-11-15T01:54:52;2.00;;;1.80;;
990;SDS011;484;48.128;11.602;2022-11-15T01:57:39;1.20;;;1.10;;
990;SDS011;484;48.128;11.602;2022-11-15T02:00:26;2.03;;;1.93;;
990;SDS011;484;48.128;11.602;2022-11-15T02:03:13;2.90;;;2.70;;
990;SDS011;484;48.128;11.602;2022-11-15T02:05:58;1.40;;;1.30;;
990;SDS011;484;48.128;11.602;2022-11-15T02:08:44;2.30;;;2.10;;
990;SDS011;484;48.128;11.602;2022-11-15T02:11:29;1.90;;;1.80;;
990;SDS011;484;48.128;11.602;2022-11-15T02:14:15;1.40;;;1.30;;
990;SDS011;484;48.128;11.602;2022-11-15T02:17:05;2.93;;;2.00;;
990;SDS011;484;48.128;11.602;2022-11-15T02:20:14;2.13;;;2.03;;
990;SDS011;484;48.128;11.602;2022-11-15T02:23:22;1.57;;;1.47;;
990;SDS011;484;48.128;11.602;2022-11-15T02:26:22;1.63;;;1.53;;
990;SDS011;484;48.128;11.602;2022-11-15T02:29:26;1.83;;;1.73;;
990;SDS011;484;48.128;11.602;2022-11-15T02:32:23;1.40;;;1.30;;
990;SDS011;484;48.128;11.602;2022-11-15T02:35:16;1.30;;;1.30;;
990;SDS011;484;48.128;11.602;2022-11-15T02:38:16;1.47;;;1.37;;
990;SDS011;484;48.128;11.602;2022-11-15T02:41:07;1.60;;;1.50;;
990;SDS011;484;48.128;11.602;2022-11-15T02:43:56;1.63;;;1.53;;
990;SDS011;484;48.128;11.602;2022-11-15T02:46:44;1.03;;;0.90;;
990;SDS011;484;48.128;11.602;2022-11-15T02:49:50;1.97;;;1.83;;
990;SDS011;484;48.128;11.602;2022-11-15T02:52:36;2.00;;;1.60;;
990;SDS011;484;48.128;11.602;2022-11-15T02:55:26;1.20;;;1.20;;
990;SDS011;484;48.128;11.602;2022-11-15T02:58:35;0.93;;;0.93;;
990;SDS011;484;48.128;11.602;2022-11-15T03:01:37;1.33;;;1.23;;
990;SDS011;484;48.128;11.602;2022-11-15T03:04:26;1.57;;;1.47;;
990;SDS011;484;48.128;11.602;2022-11-15T03:07:18;1.87;;;1.70;;
990;SDS011;484;48.128;11.602;2022-11-15T03:10:06;2.00;;;1.90;;
990;SDS011;484;48.128;11.602;2022-11-15T03:12:55;2.00;;;1.83;;
990;SDS011;484;48.128;11.602;2022-11-15T03:15:42;1.60;;;1.50;;
990;SDS011;484;48.128;11.602;2022-11-15T03:18:32;1.60;;;1.50;;
990;SDS011;484;48.128;11.602;2022-11-15T03:21:18;1.30;;;1.20;;
990;SDS011;484;48.128;11.602;2022-11-15T03:24:06;1.37;;;1.13;;
990;SDS011;484;48.128;11.602;2022-11-15T03:26:53;2.53;;;1.53;;
990;SDS011;484;48.128;11.602;2022-11-15T03:29:39;2.80;;;1.20;;
990;SDS011;484;48.128;11.602;2022-11-15T03:32:28;2.03;;;1.90;;
990;SDS011;484;48.128;11.602;2022-11-15T03:35:17;2.60;;;1.17;;
990;SDS011;484;48.128;11.602;2022-11-15T03:38:05;1.40;;;1.30;;
990;SDS011;484;48.128;11.602;2022-11-15T03:40:54;1.77;;;1.67;;
990;SDS011;484;48.128;11.602;2022-11-15T03:43:44;1.53;;;1.47;;
990;SDS011;484;48.128;11.602;2022-11-15T03:46:36;8.43;;;2.13;;
990;SDS011;484;48.128;11.602;2022-11-15T03:49:25;1.63;;;1.53;;
990;SDS011;484;48.128;11.602;2022-11-15T03:52:12;1.87;;;1.77;;
990;SDS011;484;48.128;11.602;2022-11-15T03:54:58;1.50;;;1.40;;
990;SDS011;484;48.128;11.602;2022-11-15T03:57:47;2.30;;;2.10;;
990;SDS011;484;48.128;11.602;2022-11-15T04:00:37;1.93;;;1.40;;
990;SDS011;484;48.128;11.602;2022-11-15T04:03:22;2.70;;;1.90;;
990;SDS011;484;48.128;11.602;2022-11-15T04:06:08;1.53;;;1.43;;
990;SDS011;484;48.128;11.602;2022-11-15T04:08:53;1.37;;;1.27;;
990;SDS011;484;48.128;11.602;2022-11-15T04:11:38;1.40;;;1.30;;
990;SDS011;484;48.128;11.602;2022-11-15T04:14:25;3.20;;;1.90;;
990;SDS011;484;48.128;11.602;2022-11-15T04:17:11;2.43;;;1.37;;
990;SDS011;484;48.128;11.602;2022-11-15T04:19:56;3.07;;;2.47;;
990;SDS011;484;48.128;11.602;2022-11-15T04:22:58;2.60;;;1.73;;
990;SDS011;484;48.128;11.602;2022-11-15T04:26:03;3.93;;;1.73;;
990;SDS011;484;48.128;11.602;2022-11-15T04:28:50;1.50;;;1.40;;
990;SDS011;484;48.128;11.602;2022-11-15T04:31:55;1.80;;;1.70;;
990;SDS011;484;48.128;11.602;2022-11-15T04:34:40;1.40;;;1.40;;
990;SDS011;484;48.128;11.602;2022-11-15T04:37:26;1.37;;;1.27;;
990;SDS011;484;48.128;11.602;2022-11-15T04:40:12;2.20;;;2.07;;
990;SDS011;484;48.128;11.602;2022-11-15T04:42:57;1.80;;;1.13;;
990;SDS011;484;48.128;11.602;2022-11-15T04:45:43;1.37;;;1.37;;
990;SDS011;484;48.128;11.602;2022-11-15T04:48:29;1.57;;;1.47;;
990;SDS011;484;48.128;11.602;2022-11-15T04:51:15;2.93;;;2.83;;
990;SDS011;484;48.128;11.602;2022-11-15T04:54:00;2.67;;;2.47;;
990;SDS011;484;48.128;11.602;2022-11-15T04:56:46;2.10;;;2.00;;
990;SDS011;484;48.128;11.602;2022-11-15T04:59:31;1.20;;;1.10;;
990;SDS011;484;48.128;11.602;2022-11-15T05:02:17;2.13;;;1.70;;
990;SDS011;484;48.128;11.602;2022-11-15T05:05:04;2.20;;;1.53;;
990;SDS011;484;48.128;11.602;2022-11-15T05:07:49;4.97;;;2.27;;
990;SDS011;484;48.128;11.602;2022-11-15T05:10:34;1.13;;;1.10;;
990;SDS011;484;48.128;11.602;2022-11-15T05:13:19;1.43;;;1.33;;
990;SDS011;484;48.128;11.602;2022-11-15T05:16:05;1.43;;;1.20;;
990;SDS011;484;48.128;11.602;2022-11-15T05:18:51;0.77;;;0.73;;
990;SDS011;484;48.128;11.602;2022-11-15T05:21:40;1.40;;;1.30;;
990;SDS011;484;48.128;11.602;2022-11-15T05:24:26;1.77;;;1.33;;
990;SDS011;484;48.128;11.602;2022-11-15T05:27:11;1.00;;;0.90;;
990;SDS011;484;48.128;11.602;2022-11-15T05:29:57;1.33;;;1.23;;
990;SDS011;484;48.128;11.602;2022-11-15T05:32:42;1.13;;;1.13;;
990;SDS011;484;48.128;11.602;2022-11-15T05:35:29;1.50;;;1.40;;
990;SDS011;484;48.128;11.602;2022-11-15T05:38:17;1.50;;;1.40;;
990;SDS011;484;48.128;11.602;2022-11-15T05:41:02;1.27;;;1.17;;
990;SDS011;484;48.128;11.602;2022-11-15T05:43:48;2.23;;;2.03;;
990;SDS011;484;48.128;11.602;2022-11-15T05:46:35;1.73;;;1.63;;
990;SDS011;484;48.128;11.602;2022-11-15T05:49:22;1.70;;;1.07;;
990;SDS011;484;48.128;11.602;2022-11-15T05:52:09;1.97;;;1.53;;
990;SDS011;484;48.128;11.602;2022-11-15T05:54:58;1.43;;;1.30;;
990;SDS011;484;48.128;11.602;2022-11-15T05:57:44;1.43;;;1.33;;
990;SDS011;484;48.128;11.602;2022-11-15T06:00:29;1.07;;;1.03;;
990;SDS011;484;48.128;11.602;2022-11-15T06:03:15;1.80;;;1.70;;
990;SDS011;484;48.128;11.602;2022-11-15T06:06:00;2.00;;;1.47;;
990;SDS011;484;48.128;11.602;2022-11-15T06:08:46;1.67;;;1.57;;
990;SDS011;484;48.128;11.602;2022-11-15T06:11:32;1.60;;;1.50;;
990;SDS011;484;48.128;11.602;2022-11-15T06:14:18;1.63;;;1.53;;
990;SDS011;484;48.128;11.602;2022-11-15T06:17:03;1.17;;;1.10;;
990;SDS011;484;48.128;11.602;2022-11-15T06:19:48;1.10;;;1.00;;
990;SDS011;484;48.128;11.602;2022-11-15T06:22:34;2.00;;;1.90;;
990;SDS011;484;48.128;11.602;2022-11-15T06:25:19;2.43;;;2.23;;
990;SDS011;484;48.128;11.602;2022-11-15T06:28:06;1.60;;;1.50;;
990;SDS011;484;48.128;11.602;2022-11-15T06:30:52;1.67;;;1.57;;
990;SDS011;484;48.128;11.602;2022-11-15T06:33:37;2.33;;;1.57;;
990;SDS011;484;48.128;11.602;2022-11-15T06:36:23;1.50;;;1.40;;
990;SDS011;484;48.128;11.602;2022-11-15T06:39:08;3.33;;;1.57;;
990;SDS011;484;48.128;11.602;2022-11-15T06:41:53;2.77;;;1.57;;
990;SDS011;484;48.128;11.602;2022-11-15T06:44:40;6.40;;;3.17;;
990;SDS011;484;48.128;11.602;2022-11-15T06:47:25;1.37;;;1.27;;
990;SDS011;484;48.128;11.602;2022-11-15T06:50:11;4.90;;;4.30;;
990;SDS011;484;48.128;11.602;2022-11-15T06:53:00;1.70;;;1.27;;
990;SDS011;484;48.128;11.602;2022-11-15T06:55:45;1.57;;;1.47;;
990;SDS011;484;48.128;11.602;2022-11-15T06:58:31;12.23;;;4.10;;
990;SDS011;484;48.128;11.602;2022-11-15T07:01:18;1.67;;;1.57;;
990;SDS011;484;48.128;11.602;2022-11-15T07:04:03;2.33;;;1.53;;
990;SDS011;484;48.128;11.602;2022-11-15T07:06:48;1.53;;;1.43;;
990;SDS011;484;48.128;11.602;2022-11-15T07:09:34;2.20;;;2.00;;
990;SDS011;484;48.128;11.602;2022-11-15T07:12:19;4.20;;;1.77;;
990;SDS011;484;48.128;11.602;2022-11-15T07:15:05;1.37;;;1.27;;
990;SDS011;484;48.128;11.602;2022-11-15T07:17:52;3.80;;;1.50;;
990;SDS011;484;48.128;11.602;2022-11-15T07:20:37;1.00;;;0.90;;
990;SDS011;484;48.128;11.602;2022-11-15T07:23:23;2.10;;;1.67;;
990;SDS011;484;48.128;11.602;2022-11-15T07:26:08;6.90;;;1.63;;
990;SDS011;484;48.128;11.602;2022-11-15T07:28:54;1.67;;;1.40;;
990;SDS011;484;48.128;11.602;2022-11-15T07:31:39;1.30;;;1.20;;
990;SDS011;484;48.128;11.602;2022-11-15T07:34:26;2.23;;;2.10;;
990;SDS011;484;48.128;11.602;2022-11-15T07:37:11;4.10;;;1.77;;
990;SDS011;484;48.128;11.602;2022-11-15T07:39:56;2.00;;;1.90;;
990;SDS011;484;48.128;11.602;2022-11-15T07:42:42;1.77;;;1.67;;
990;SDS011;484;48.128;11.602;2022-11-15T07:45:40;1.80;;;1.70;;
990;SDS011;484;48.128;11.602;2022-11-15T07:48:26;3.07;;;2.87;;
990;SDS011;484;48.128;11.602;2022-11-15T07:51:13;6.67;;;2.73;;
990;SDS011;484;48.128;11.602;2022-11-15T07:53:59;2.70;;;2.30;;
990;SDS011;484;48.128;11.602;2022-11-15T07:56:44;3.13;;;1.60;;
990;SDS011;484;48.128;11.602;2022-11-15T07:59:30;1.93;;;1.77;;
990;SDS011;484;48.128;11.602;2022-11-15T08:02:15;2.27;;;2.07;;
990;SDS011;484;48.128;11.602;2022-11-15T08:05:01;3.37;;;2.97;;
990;SDS011;484;48.128;11.602;2022-11-15T08:07:48;4.10;;;2.70;;
990;SDS011;484;48.128;11.602;2022-11-15T08:10:33;1.70;;;1.60;;
990;SDS011;484;48.128;11.602;2022-11-15T08:13:19;1.63;;;1.53;;
990;SDS011;484;48.128;11.602;2022-11-15T08:16:05;7.27;;;2.10;;
990;SDS011;484;48.128;11.602;2022-11-15T08:18:50;2.03;;;1.83;;
990;SDS011;484;48.128;11.602;2022-11-15T08:21:36;2.20;;;1.80;;
990;SDS011;484;48.128;11.602;2022-11-15T08:24:23;3.10;;;2.90;;
990;SDS011;484;48.128;11.602;2022-11-15T08:27:08;1.33;;;1.23;;
990;SDS011;484;48.128;11.602;2022-11-15T08:29:58;2.10;;;1.90;;
990;SDS011;484;48.128;11.602;2022-11-15T08:32:43;3.90;;;3.60;;
990;SDS011;484;48.128;11.602;2022-11-15T08:35:28;2.70;;;2.50;;
990;SDS011;484;48.128;11.602;2022-11-15T08:38:14;2.10;;;1.90;;
990;SDS011;484;48.128;11.602;2022-11-15T08:41:01;3.23;;;2.13;;
990;SDS011;484;48.128;11.602;2022-11-15T08:43:48;2.23;;;2.13;;
990;SDS011;484;48.128;11.602;2022-11-15T08:46:33;5.97;;;4.50;;
990;SDS011;484;48.128;11.602;2022-11-15T08:49:18;4.47;;;3.70;;
990;SDS011;484;48.128;11.602;2022-11-15T08:52:04;2.93;;;2.73;;
990;SDS011;484;48.128;11.602;2022-11-15T08:54:49;2.40;;;2.20;;
990;SDS011;484;48.128;11.602;2022-11-15T08:57:36;3.37;;;3.07;;
990;SDS011;484;48.128;11.602;2022-11-15T09:00:22;3.87;;;3.50;;
990;SDS011;484;48.128;11.602;2022-11-15T09:03:07;2.50;;;2.33;;
990;SDS011;484;48.128;11.602;2022-11-15T09:05:54;3.30;;;2.13;;
990;SDS011;484;48.128;11.602;2022-11-15T09:08:40;5.77;;;2.37;;
990;SDS011;484;48.128;11.602;2022-11-15T09:11:26;2.40;;;2.00;;
990;SDS011;484;48.128;11.602;2022-11-15T09:14:13;2.40;;;2.20;;
990;SDS011;484;48.128;11.602;2022-11-15T09:16:58;2.40;;;2.13;;
990;SDS011;484;48.128;11.602;2022-11-15T09:19:43;2.97;;;2.37;;
990;SDS011;484;48.128;11.602;2022-11-15T09:22:29;2.20;;;2.10;;
990;SDS011;484;48.128;11.602;2022-11-15T09:25:14;2.63;;;2.43;;
990;SDS011;484;48.128;11.602;2022-11-15T09:28:00;3.10;;;2.90;;
990;SDS011;484;48.128;11.602;2022-11-15T09:30:47;2.60;;;2.40;;
990;SDS011;484;48.128;11.602;2022-11-15T09:33:32;1.90;;;1.80;;
990;SDS011;484;48.128;11.602;2022-11-15T09:36:18;2.77;;;2.57;;
990;SDS011;484;48.128;11.602;2022-11-15T09:39:03;1.97;;;1.87;;
990;SDS011;484;48.128;11.602;2022-11-15T09:41:58;2.70;;;2.50;;
990;SDS011;484;48.128;11.602;2022-11-15T09:44:58;2.00;;;1.80;;
990;SDS011;484;48.128;11.602;2022-11-15T09:47:54;1.60;;;1.50;;
990;SDS011;484;48.128;11.602;2022-11-15T09:50:45;1.87;;;1.77;;
990;SDS011;484;48.128;11.602;2022-11-15T09:53:34;1.60;;;1.50;;
990;SDS011;484;48.128;11.602;2022-11-15T09:56:24;1.97;;;1.77;;
990;SDS011;484;48.128;11.602;2022-11-15T09:59:15;1.77;;;1.67;;
990;SDS011;484;48.128;11.602;2022-11-15T10:02:09;2.97;;;1.77;;
990;SDS011;484;48.128;11.602;2022-11-15T10:05:06;1.53;;;1.43;;
990;SDS011;484;48.128;11.602;2022-11-15T10:07:54;4.00;;;1.43;;
990;SDS011;484;48.128;11.602;2022-11-15T10:10:43;2.20;;;2.03;;
990;SDS011;484;48.128;11.602;2022-11-15T10:13:31;1.70;;;1.60;;
990;SDS011;484;48.128;11.602;2022-11-15T10:19:43;2.83;;;2.70;;
990;SDS011;484;48.128;11.602;2022-11-15T10:22:37;1.53;;;1.43;;
990;SDS011;484;48.128;11.602;2022-11-15T10:25:24;2.40;;;1.70;;
990;SDS011;484;48.128;11.602;2022-11-15T10:28:12;1.03;;;1.03;;
990;SDS011;484;48.128;11.602;2022-11-15T10:31:00;1.33;;;1.23;;
990;SDS011;484;48.128;11.602;2022-11-15T10:33:45;2.13;;;2.03;;
990;SDS011;484;48.128;11.602;2022-11-15T10:36:31;1.30;;;1.20;;
990;SDS011;484;48.128;11.602;2022-11-15T10:39:18;1.57;;;1.47;;
990;SDS011;484;48.128;11.602;2022-11-15T10:42:17;1.50;;;1.40;;
990;SDS011;484;48.128;11.602;2022-11-15T10:45:08;2.00;;;1.90;;
990;SDS011;484;48.128;11.602;2022-11-15T10:48:21;1.40;;;1.30;;
990;SDS011;484;48.128;11.602;2022-11-15T10:51:18;1.20;;;1.20;;
990;SDS011;484;48.128;11.602;2022-11-15T10:54:06;1.80;;;1.57;;
990;SDS011;484;48.128;11.602;2022-11-15T10:56:54;1.83;;;1.73;;
990;SDS011;484;48.128;11.602;2022-11-15T10:59:42;1.37;;;1.27;;
990;SDS011;484;48.128;11.602;2022-11-15T11:02:31;1.40;;;1.30;;
990;SDS011;484;48.128;11.602;2022-11-15T11:05:25;3.37;;;2.37;;
990;SDS011;484;48.128;11.602;2022-11-15T11:08:22;1.83;;;1.50;;
990;SDS011;484;48.128;11.602;2022-11-15T11:11:08;1.27;;;1.27;;
990;SDS011;484;48.128;11.602;2022-11-15T11:13:55;2.63;;;1.83;;
990;SDS011;484;48.128;11.602;2022-11-15T11:16:59;2.73;;;1.30;;
990;SDS011;484;48.128;11.602;2022-11-15T11:19:50;1.73;;;1.63;;
990;SDS011;484;48.128;11.602;2022-11-15T11:22:45;1.40;;;1.30;;
990;SDS011;484;48.128;11.602;2022-11-15T11:25:39;1.33;;;1.23;;
990;SDS011;484;48.128;11.602;2022-11-15T11:28:32;2.00;;;1.80;;
990;SDS011;484;48.128;11.602;2022-11-15T11:31:27;1.83;;;1.47;;
990;SDS011;484;48.128;11.602;2022-11-15T11:34:19;3.13;;;1.50;;
990;SDS011;484;48.128;11.602;2022-11-15T11:37:19;1.50;;;1.40;;
990;SDS011;484;48.128;11.602;2022-11-15T11:40:12;1.90;;;1.80;;
990;SDS011;484;48.128;11.602;2022-11-15T11:43:04;2.20;;;2.00;;
990;SDS011;484;48.128;11.602;2022-11-15T11:45:58;1.47;;;1.37;;
990;SDS011;484;48.128;11.602;2022-11-15T11:48:54;1.53;;;1.43;;
990;SDS011;484;48.128;11.602;2022-11-15T11:51:43;1.97;;;1.87;;
990;SDS011;484;48.128;11.602;2022-11-15T11:54:32;1.30;;;1.20;;
990;SDS011;484;48.128;11.602;2022-11-15T11:57:25;1.90;;;1.80;;
990;SDS011;484;48.128;11.602;2022-11-15T12:00:17;2.53;;;2.33;;
990;SDS011;484;48.128;11.602;2022-11-15T12:03:05;1.93;;;1.83;;
990;SDS011;484;48.128;11.602;2022-11-15T12:05:56;2.80;;;2.60;;
990;SDS011;484;48.128;11.602;2022-11-15T12:08:45;1.37;;;1.27;;
990;SDS011;484;48.128;11.602;2022-11-15T12:11:35;3.67;;;1.50;;
990;SDS011;484;48.128;11.602;2022-11-15T12:14:28;1.97;;;1.83;;
990;SDS011;484;48.128;11.602;2022-11-15T12:17:22;1.33;;;1.23;;
990;SDS011;484;48.128;11.602;2022-11-15T12:20:14;1.73;;;1.20;;
990;SDS011;484;48.128;11.602;2022-11-15T12:23:04;1.87;;;1.70;;
990;SDS011;484;48.128;11.602;2022-11-15T12:25:52;1.40;;;1.33;;
990;SDS011;484;48.128;11.602;2022-11-15T12:28:40;1.73;;;1.50;;
990;SDS011;484;48.128;11.602;2022-11-15T12:31:30;1.83;;;1.73;;
990;SDS011;484;48.128;11.602;2022-11-15T12:34:42;1.60;;;1.50;;
990;SDS011;484;48.128;11.602;2022-11-15T12:37:33;1.47;;;1.37;;
990;SDS011;484;48.128;11.602;2022-11-15T12:40:21;1.53;;;1.43;;
990;SDS011;484;48.128;11.602;2022-11-15T12:49:46;1.40;;;1.30;;
990;SDS011;484;48.128;11.602;2022-11-15T12:52:31;1.30;;;1.20;;
990;SDS011;484;48.128;11.602;2022-11-15T12:55:31;2.87;;;2.57;;
990;SDS011;484;48.128;11.602;2022-11-15T12:58:26;1.47;;;1.37;;
990;SDS011;484;48.128;11.602;2022-11-15T13:04:31;1.17;;;1.07;;
990;SDS011;484;48.128;11.602;2022-11-15T13:10:36;3.30;;;1.33;;
990;SDS011;484;48.128;11.602;2022-11-15T13:16:29;1.83;;;1.50;;
990;SDS011;484;48.128;11.602;2022-11-15T13:19:15;1.50;;;1.40;;
990;SDS011;484;48.128;11.602;2022-11-15T13:22:04;3.67;;;1.63;;
990;SDS011;484;48.128;11.602;2022-11-15T13:25:14;4.00;;;2.20;;
990;SDS011;484;48.128;11.602;2022-11-15T13:28:09;5.43;;;3.13;;
990;SDS011;484;48.128;11.602;2022-11-15T13:31:16;2.30;;;2.20;;
990;SDS011;484;48.128;11.602;2022-11-15T13:34:22;2.20;;;1.77;;
990;SDS011;484;48.128;11.602;2022-11-15T13:37:11;6.70;;;5.33;;
990;SDS011;484;48.128;11.602;2022-11-15T13:43:15;2.53;;;2.33;;
990;SDS011;484;48.128;11.602;2022-11-15T13:46:05;2.13;;;1.80;;
990;SDS011;484;48.128;11.602;2022-11-15T13:48:52;2.23;;;1.77;;
990;SDS011;484;48.128;11.602;2022-11-15T13:51:42;2.80;;;2.23;;
990;SDS011;484;48.128;11.602;2022-11-15T13:54:29;1.93;;;1.83;;
990;SDS011;484;48.128;11.602;2022-11-15T13:57:16;3.10;;;2.87;;
990;SDS011;484;48.128;11.602;2022-11-15T14:00:06;2.33;;;2.13;;
990;SDS011;484;48.128;11.602;2022-11-15T14:03:15;2.47;;;2.27;;
990;SDS011;484;48.128;11.602;2022-11-15T14:06:04;2.60;;;2.40;;
990;SDS011;484;48.128;11.602;2022-11-15T14:09:02;2.20;;;2.10;;
990;SDS011;484;48.128;11.602;2022-11-15T14:12:00;2.53;;;2.33;;
990;SDS011;484;48.128;11.602;2022-11-15T14:14:47;4.67;;;3.30;;
990;SDS011;484;48.128;11.602;2022-11-15T14:17:35;2.30;;;2.10;;
990;SDS011;484;48.128;11.602;2022-11-15T14:20:29;4.17;;;3.70;;
990;SDS011;484;48.128;11.602;2022-11-15T14:23:20;3.80;;;1.70;;
990;SDS011;484;48.128;11.602;2022-11-15T14:26:24;1.97;;;1.87;;
990;SDS011;484;48.128;11.602;2022-11-15T14:29:24;4.40;;;4.00;;
990;SDS011;484;48.128;11.602;2022-11-15T14:32:11;3.20;;;2.90;;
990;SDS011;484;48.128;11.602;2022-11-15T14:34:59;3.90;;;3.10;;
990;SDS011;484;48.128;11.602;2022-11-15T14:37:47;3.17;;;2.80;;
990;SDS011;484;48.128;11.602;2022-11-15T14:40:33;1.77;;;1.67;;
990;SDS011;484;48.128;11.602;2022-11-15T14:43:18;4.20;;;2.80;;
990;SDS011;484;48.128;11.602;2022-11-15T14:46:04;3.13;;;2.93;;
990;SDS011;484;48.128;11.602;2022-11-15T14:48:50;2.30;;;2.10;;
990;SDS011;484;48.128;11.602;2022-11-15T14:51:37;2.50;;;2.07;;
990;SDS011;484;48.128;11.602;2022-11-15T14:54:22;1.83;;;1.73;;
990;SDS011;484;48.128;11.602;2022-11-15T14:57:08;2.47;;;1.70;;
990;SDS011;484;48.128;11.602;2022-11-15T14:59:53;3.07;;;1.70;;
990;SDS011;484;48.128;11.602;2022-11-15T15:02:39;5.60;;;2.37;;
990;SDS011;484;48.128;11.602;2022-11-15T15:05:27;20.97;;;12.80;;
990;SDS011;484;48.128;11.602;2022-11-15T15:08:17;4.43;;;3.37;;
990;SDS011;484;48.128;11.602;2022-11-15T15:11:03;7.33;;;2.37;;
990;SDS011;484;48.128;11.602;2022-11-15T15:13:52;10.77;;;5.77;;
990;SDS011;484;48.128;11.602;2022-11-15T15:16:40;3.43;;;3.13;;
990;SDS011;484;48.128;11.602;2022-11-15T15:19:25;6.60;;;3.27;;
990;SDS011;484;48.128;11.602;2022-11-15T15:22:11;4.13;;;3.73;;
990;SDS011;484;48.128;11.602;2022-11-15T15:25:00;14.07;;;12.90;;
990;SDS011;484;48.128;11.602;2022-11-15T15:27:46;8.53;;;7.83;;
990;SDS011;484;48.128;11.602;2022-11-15T15:30:31;5.77;;;5.37;;
990;SDS011;484;48.128;11.602;2022-11-15T15:33:17;5.93;;;5.33;;
990;SDS011;484;48.128;11.602;2022-11-15T15:36:03;7.10;;;4.00;;
990;SDS011;484;48.128;11.602;2022-11-15T15:38:49;6.03;;;4.63;;
990;SDS011;484;48.128;11.602;2022-11-15T15:41:36;6.37;;;4.10;;
990;SDS011;484;48.128;11.602;2022-11-15T15:44:21;3.53;;;3.23;;
990;SDS011;484;48.128;11.602;2022-11-15T15:47:08;3.70;;;3.40;;
990;SDS011;484;48.128;11.602;2022-11-15T15:49:55;5.93;;;5.17;;
990;SDS011;484;48.128;11.602;2022-11-15T15:52:40;3.57;;;3.27;;
990;SDS011;484;48.128;11.602;2022-11-15T15:55:26;4.30;;;3.67;;
990;SDS011;484;48.128;11.602;2022-11-15T15:58:13;5.07;;;3.90;;
990;SDS011;484;48.128;11.602;2022-11-15T16:00:59;3.40;;;3.10;;
990;SDS011;484;48.128;11.602;2022-11-15T16:03:44;6.03;;;4.20;;
990;SDS011;484;48.128;11.602;2022-11-15T16:06:37;3.00;;;2.80;;
990;SDS011;484;48.128;11.602;2022-11-15T16:09:23;4.63;;;4.23;;
990;SDS011;484;48.128;11.602;2022-11-15T16:12:23;5.80;;;4.00;;
990;SDS011;484;48.128;11.602;2022-11-15T16:15:09;4.17;;;3.77;;
990;SDS011;484;48.128;11.602;2022-11-15T16:17:55;3.40;;;3.00;;
990;SDS011;484;48.128;11.602;2022-11-15T16:20:42;5.40;;;3.33;;
990;SDS011;484;48.128;11.602;2022-11-15T16:23:29;5.67;;;4.50;;
990;SDS011;484;48.128;11.602;2022-11-15T16:26:15;4.83;;;4.43;;
990;SDS011;484;48.128;11.602;2022-11-15T16:29:04;4.83;;;3.20;;
990;SDS011;484;48.128;11.602;2022-11-15T16:31:52;4.53;;;4.20;;
990;SDS011;484;48.128;11.602;2022-11-15T16:34:37;5.33;;;4.10;;
990;SDS011;484;48.128;11.602;2022-11-15T16:37:23;6.93;;;4.70;;
990;SDS011;484;48.128;11.602;2022-11-15T16:40:11;4.40;;;4.00;;
990;SDS011;484;48.128;11.602;2022-11-15T16:43:09;10.80;;;6.17;;
990;SDS011;484;48.128;11.602;2022-11-15T16:45:55;6.93;;;4.43;;
990;SDS011;484;48.128;11.602;2022-11-15T16:48:42;7.37;;;6.30;;
990;SDS011;484;48.128;11.602;2022-11-15T16:51:27;8.70;;;5.27;;
990;SDS011;484;48.128;11.602;2022-11-15T16:54:13;7.17;;;4.70;;
990;SDS011;484;48.128;11.602;2022-11-15T16:56:58;10.17;;;6.67;;
990;SDS011;484;48.128;11.602;2022-11-15T16:59:44;6.60;;;6.00;;
990;SDS011;484;48.128;11.602;2022-11-15T17:02:29;6.27;;;4.73;;
990;SDS011;484;48.128;11.602;2022-11-15T17:05:18;12.20;;;10.07;;
990;SDS011;484;48.128;11.602;2022-11-15T17:08:05;5.47;;;4.97;;
990;SDS011;484;48.128;11.602;2022-11-15T17:10:50;5.60;;;4.10;;
990;SDS011;484;48.128;11.602;2022-11-15T17:13:36;5.00;;;4.43;;
990;SDS011;484;48.128;11.602;2022-11-15T17:16:21;8.50;;;5.17;;
990;SDS011;484;48.128;11.602;2022-11-15T17:19:10;3.50;;;3.30;;
990;SDS011;484;48.128;11.602;2022-11-15T17:21:59;7.47;;;5.20;;
990;SDS011;484;48.128;11.602;2022-11-15T17:24:44;5.60;;;4.00;;
990;SDS011;484;48.128;11.602;2022-11-15T17:27:30;8.90;;;5.87;;
990;SDS011;484;48.128;11.602;2022-11-15T17:30:15;12.33;;;7.70;;
990;SDS011;484;48.128;11.602;2022-11-15T17:33:01;5.67;;;5.03;;
990;SDS011;484;48.128;11.602;2022-11-15T17:35:53;5.80;;;4.60;;
990;SDS011;484;48.128;11.602;2022-11-15T17:38:41;34.30;;;6.50;;
990;SDS011;484;48.128;11.602;2022-11-15T17:41:26;4.60;;;4.20;;
990;SDS011;484;48.128;11.602;2022-11-15T17:44:12;6.53;;;5.50;;
990;SDS011;484;48.128;11.602;2022-11-15T17:46:58;5.50;;;5.00;;
990;SDS011;484;48.128;11.602;2022-11-15T17:49:43;5.00;;;4.60;;
990;SDS011;484;48.128;11.602;2022-11-15T17:52:29;5.50;;;5.10;;
990;SDS011;484;48.128;11.602;2022-11-15T17:55:16;9.87;;;8.87;;
990;SDS011;484;48.128;11.602;2022-11-15T17:58:01;8.07;;;6.27;;
990;SDS011;484;48.128;11.602;2022-11-15T18:00:47;4.43;;;3.80;;
990;SDS011;484;48.128;11.602;2022-11-15T18:03:33;7.40;;;4.13;;
990;SDS011;484;48.128;11.602;2022-11-15T18:06:19;5.07;;;3.73;;